createdAt,value
2023-05-21T00:02:00.180Z,5.22
2023-05-21T00:06:56.950Z,6.68
2023-05-21T00:09:24.440Z,8.30
2023-05-21T00:11:51.842Z,5.30
2023-05-21T00:14:19.131Z,6.85
2023-05-21T00:16:47.154Z,8.10
2023-05-21T00:19:14.601Z,6.88
2023-05-21T00:21:41.980Z,8.10
2023-05-21T00:24:09.357Z,5.97
2023-05-21T00:26:36.893Z,7.05
2023-05-21T00:29:04.764Z,8.48
2023-05-21T00:31:32.262Z,7.03
2023-05-21T00:34:00.008Z,8.32
2023-05-21T00:36:27.299Z,7.88
2023-05-21T00:38:54.589Z,9.18
2023-05-21T00:41:23.066Z,9.93
2023-05-21T00:43:50.410Z,7.72
2023-05-21T00:46:22.544Z,7.07
2023-05-21T00:48:50.245Z,6.53
2023-05-21T00:51:18.717Z,7.90
2023-05-21T00:53:46.697Z,10.05
2023-05-21T00:56:14.363Z,6.82
2023-05-21T00:58:42.053Z,9.07
2023-05-21T01:01:13.860Z,6.18
2023-05-21T01:03:41.694Z,7.50
2023-05-21T01:06:10.484Z,8.63
2023-05-21T01:08:38.313Z,7.18
2023-05-21T01:11:07.251Z,7.35
2023-05-21T01:13:35.494Z,7.50
2023-05-21T01:16:03.330Z,8.70
2023-05-21T01:18:35.040Z,7.20
2023-05-21T01:21:02.969Z,8.93
2023-05-21T01:23:30.946Z,8.17
2023-05-21T01:25:58.772Z,8.25
2023-05-21T01:28:26.247Z,6.22
2023-05-21T01:30:53.627Z,6.85
2023-05-21T01:33:41.780Z,8.30
2023-05-21T01:36:21.790Z,10.90
2023-05-21T01:38:52.789Z,8.70
2023-05-21T01:41:21.033Z,5.53
2023-05-21T01:43:48.745Z,9.50
2023-05-21T01:46:18.610Z,8.77
2023-05-21T01:48:46.240Z,8.60
2023-05-21T01:51:13.773Z,7.38
2023-05-21T01:53:41.611Z,7.18
2023-05-21T01:56:08.993Z,9.75
2023-05-21T01:58:36.386Z,6.30
2023-05-21T02:01:04.614Z,7.75
2023-05-21T02:03:32.046Z,6.30
2023-05-21T02:05:59.590Z,7.82
2023-05-21T02:08:27.971Z,6.70
2023-05-21T02:10:55.701Z,7.78
2023-05-21T02:13:26.230Z,7.47
2023-05-21T02:15:54.959Z,7.45
2023-05-21T02:20:50.589Z,6.55
2023-05-21T02:23:18.050Z,8.45
2023-05-21T02:25:45.645Z,8.38
2023-05-21T02:28:13.215Z,9.23
2023-05-21T02:30:41.752Z,6.45
2023-05-21T02:33:09.405Z,5.75
2023-05-21T02:35:37.009Z,7.90
2023-05-21T02:38:04.555Z,8.25
2023-05-21T02:40:33.149Z,8.18
2023-05-21T02:43:00.541Z,7.70
2023-05-21T02:45:31.221Z,7.10
2023-05-21T02:47:59.208Z,6.93
2023-05-21T02:50:26.736Z,8.60
2023-05-21T02:52:59.665Z,8.02
2023-05-21T02:55:27.259Z,6.97
2023-05-21T02:57:54.636Z,6.32
2023-05-21T03:00:21.996Z,7.63
2023-05-21T03:02:50.042Z,10.68
2023-05-21T03:05:17.566Z,9.63
2023-05-21T03:07:45.535Z,9.40
2023-05-21T03:10:13.000Z,9.32
2023-05-21T03:12:40.403Z,8.63
2023-05-21T03:15:07.980Z,9.80
2023-05-21T03:17:35.529Z,10.90
2023-05-21T03:20:04.730Z,8.52
2023-05-21T03:25:01.727Z,7.13
2023-05-21T03:27:29.303Z,9.55
2023-05-21T03:29:56.628Z,7.32
2023-05-21T03:32:25.051Z,9.15
2023-05-21T03:34:54.004Z,10.55
2023-05-21T03:37:21.385Z,7.25
2023-05-21T03:39:48.620Z,7.40
2023-05-21T03:42:16.183Z,9.27
2023-05-21T03:44:48.813Z,9.80
2023-05-21T03:47:36.147Z,11.07
2023-05-21T03:50:06.353Z,9.52
2023-05-21T03:52:33.730Z,9.10
2023-05-21T03:55:01.912Z,7.10
2023-05-21T03:57:29.554Z,10.68
2023-05-21T03:59:58.973Z,10.10
2023-05-21T04:02:29.273Z,7.82
2023-05-21T04:04:56.567Z,9.25
2023-05-21T04:07:25.205Z,9.02
2023-05-21T04:09:52.559Z,8.43
2023-05-21T04:12:22.806Z,8.52
2023-05-21T04:14:50.289Z,8.70
2023-05-21T04:17:19.293Z,7.43
2023-05-21T04:19:47.193Z,8.27
2023-05-21T04:22:14.718Z,8.25
2023-05-21T04:24:42.625Z,9.00
2023-05-21T04:27:17.281Z,8.70
2023-05-21T04:29:45.381Z,9.00
2023-05-21T04:32:15.239Z,9.73
2023-05-21T04:34:42.959Z,8.05
2023-05-21T04:37:10.607Z,10.20
2023-05-21T04:39:37.931Z,10.73
2023-05-21T04:42:10.936Z,10.02
2023-05-21T04:44:40.427Z,9.60
2023-05-21T04:47:08.134Z,9.95
2023-05-21T04:49:36.876Z,9.43
2023-05-21T04:52:04.275Z,8.07
2023-05-21T04:54:31.591Z,9.80
2023-05-21T04:56:58.885Z,10.65
2023-05-21T04:59:26.228Z,10.57
2023-05-21T05:01:53.593Z,10.68
2023-05-21T05:04:22.588Z,8.98
2023-05-21T05:06:50.574Z,9.85
2023-05-21T05:09:18.324Z,7.95
2023-05-21T05:11:45.686Z,7.25
2023-05-21T05:14:13.025Z,11.50
2023-05-21T05:16:40.407Z,8.73
2023-05-21T05:19:07.837Z,12.82
2023-05-21T05:21:35.244Z,8.43
2023-05-21T05:24:02.570Z,10.00
2023-05-21T05:26:32.363Z,7.75
2023-05-21T05:29:00.468Z,10.80
2023-05-21T05:31:27.819Z,16.02
2023-05-21T05:33:55.252Z,11.10
2023-05-21T05:36:24.682Z,10.00
2023-05-21T05:38:53.136Z,10.25
2023-05-21T05:41:21.014Z,10.95
2023-05-21T05:43:49.844Z,9.18
2023-05-21T05:46:18.387Z,9.75
2023-05-21T05:48:46.165Z,11.40
2023-05-21T05:51:15.413Z,12.20
2023-05-21T05:56:10.636Z,9.85
2023-05-21T05:58:38.085Z,13.27
2023-05-21T06:01:26.706Z,11.30
2023-05-21T06:03:54.993Z,10.90
2023-05-21T06:06:23.459Z,11.10
2023-05-21T06:08:50.941Z,10.55
2023-05-21T06:11:19.796Z,10.13
2023-05-21T06:13:47.479Z,10.93
2023-05-21T06:16:17.521Z,10.35
2023-05-21T06:18:44.974Z,12.48
2023-05-21T06:21:12.296Z,12.02
2023-05-21T06:23:39.892Z,11.68
2023-05-21T06:26:07.906Z,11.77
2023-05-21T06:28:36.246Z,11.95
2023-05-21T06:31:04.123Z,9.85
2023-05-21T06:33:33.392Z,14.23
2023-05-21T06:36:01.428Z,14.95
2023-05-21T06:38:28.934Z,11.95
2023-05-21T06:40:56.363Z,12.25
2023-05-21T06:43:37.930Z,11.75
2023-05-21T06:46:23.832Z,11.80
2023-05-21T06:51:20.574Z,14.23
2023-05-21T06:53:48.491Z,15.45
2023-05-21T06:56:17.398Z,15.13
2023-05-21T06:58:44.985Z,13.65
2023-05-21T07:01:12.403Z,13.05
2023-05-21T07:03:39.722Z,15.02
2023-05-21T07:06:08.694Z,11.07
2023-05-21T07:08:36.175Z,13.23
2023-05-21T07:11:03.976Z,13.00
2023-05-21T07:13:31.347Z,13.15
2023-05-21T07:15:58.721Z,13.55
2023-05-21T07:18:27.093Z,13.35
2023-05-21T07:20:54.876Z,11.82
2023-05-21T07:23:22.356Z,12.13
2023-05-21T07:25:49.678Z,13.13
2023-05-21T07:28:17.456Z,11.02
2023-05-21T07:30:45.223Z,14.20
2023-05-21T07:33:16.430Z,11.50
2023-05-21T07:35:44.974Z,12.90
2023-05-21T07:38:12.518Z,11.10
2023-05-21T07:40:40.009Z,13.35
2023-05-21T07:43:07.547Z,12.35
2023-05-21T07:45:36.475Z,10.90
2023-05-21T07:50:33.978Z,11.93
2023-05-21T07:53:01.471Z,12.65
2023-05-21T07:55:31.191Z,11.27
2023-05-21T07:57:59.726Z,12.00
2023-05-21T08:00:30.871Z,13.57
2023-05-21T08:02:58.852Z,10.15
2023-05-21T08:05:26.686Z,11.13
2023-05-21T08:07:54.091Z,10.15
2023-05-21T08:10:22.304Z,12.15
2023-05-21T08:12:51.690Z,10.40
2023-05-21T08:15:20.266Z,14.30
2023-05-21T08:17:47.607Z,13.05
2023-05-21T08:20:16.118Z,10.57
2023-05-21T08:22:45.745Z,12.20
2023-05-21T08:25:13.067Z,12.48
2023-05-21T08:27:40.521Z,14.93
2023-05-21T08:30:11.513Z,9.32
2023-05-21T08:32:39.147Z,9.77
2023-05-21T08:35:07.390Z,11.48
2023-05-21T08:38:12.956Z,12.15
2023-05-21T08:40:49.840Z,10.27
2023-05-21T08:43:17.231Z,12.65
2023-05-21T08:45:53.272Z,10.13
2023-05-21T08:48:23.154Z,9.40
2023-05-21T08:50:54.278Z,12.70
2023-05-21T08:53:29.603Z,10.85
2023-05-21T08:55:58.348Z,16.65
2023-05-21T08:58:37.235Z,10.63
2023-05-21T09:01:05.720Z,9.35
2023-05-21T09:03:34.729Z,9.45
2023-05-21T09:06:02.281Z,13.32
2023-05-21T09:08:36.490Z,12.98
2023-05-21T09:11:07.981Z,9.60
2023-05-21T09:13:42.574Z,9.82
2023-05-21T09:16:16.069Z,9.57
2023-05-21T09:18:43.716Z,12.35
2023-05-21T09:21:26.993Z,9.80
2023-05-21T09:23:59.104Z,10.57
2023-05-21T09:26:27.125Z,7.38
2023-05-21T09:29:01.638Z,10.25
2023-05-21T09:31:30.106Z,9.60
2023-05-21T09:33:57.510Z,10.02
2023-05-21T09:38:54.383Z,8.65
2023-05-21T09:41:31.686Z,9.02
2023-05-21T09:44:03.003Z,8.80
2023-05-21T09:46:43.565Z,10.20
2023-05-21T09:49:27.988Z,7.63
2023-05-21T09:51:59.690Z,9.30
2023-05-21T09:54:32.226Z,7.97
2023-05-21T09:57:04.043Z,9.38
2023-05-21T09:59:38.126Z,8.73
2023-05-21T10:02:15.739Z,10.10
2023-05-21T10:04:44.039Z,8.85
2023-05-21T10:07:11.467Z,10.90
2023-05-21T10:09:39.128Z,9.85
2023-05-21T10:12:06.932Z,11.13
2023-05-21T10:14:34.793Z,10.07
2023-05-21T10:17:02.104Z,9.88
2023-05-21T10:19:31.926Z,8.50
2023-05-21T10:21:59.968Z,9.98
2023-05-21T10:24:27.945Z,9.60
2023-05-21T10:26:55.480Z,10.13
2023-05-21T10:29:23.865Z,12.23
2023-05-21T10:31:53.317Z,9.07
2023-05-21T10:34:22.034Z,10.68
2023-05-21T10:36:49.898Z,9.88
2023-05-21T10:39:17.518Z,10.20
2023-05-21T10:41:59.764Z,9.10
2023-05-21T10:44:32.804Z,11.52
2023-05-21T10:47:06.318Z,11.50
2023-05-21T10:49:51.942Z,9.35
2023-05-21T10:52:19.219Z,9.48
2023-05-21T10:54:52.950Z,9.32
2023-05-21T10:57:20.422Z,9.30
2023-05-21T10:59:48.077Z,9.75
2023-05-21T11:02:16.103Z,12.40
2023-05-21T11:04:49.025Z,10.98
2023-05-21T11:07:24.622Z,10.50
2023-05-21T11:09:52.000Z,10.23
2023-05-21T11:12:19.893Z,10.13
2023-05-21T11:14:57.692Z,9.25
2023-05-21T11:17:38.754Z,10.10
2023-05-21T11:20:10.616Z,10.32
2023-05-21T11:22:38.702Z,10.30
2023-05-21T11:25:06.601Z,9.48
2023-05-21T11:27:37.573Z,9.63
2023-05-21T11:30:08.758Z,11.50
2023-05-21T11:32:42.494Z,10.30
2023-05-21T11:35:09.910Z,11.80
2023-05-21T11:37:40.645Z,11.95
2023-05-21T11:40:18.795Z,9.65
2023-05-21T11:42:49.798Z,8.98
2023-05-21T11:45:18.951Z,11.75
2023-05-21T11:47:47.239Z,14.27
2023-05-21T11:50:15.712Z,11.02
2023-05-21T11:52:43.587Z,11.25
2023-05-21T11:55:11.522Z,9.43
2023-05-21T11:57:41.760Z,10.13
2023-05-21T12:00:16.528Z,11.90
2023-05-21T12:02:47.886Z,10.25
2023-05-21T12:05:15.618Z,11.48
2023-05-21T12:07:43.054Z,15.23
2023-05-21T12:10:10.749Z,14.35
2023-05-21T12:12:50.580Z,10.45
2023-05-21T12:15:22.807Z,12.02
2023-05-21T12:17:52.723Z,10.48
2023-05-21T12:20:20.315Z,11.88
2023-05-21T12:22:49.236Z,14.07
2023-05-21T12:25:19.906Z,9.32
2023-05-21T12:27:47.667Z,8.55
2023-05-21T12:30:15.334Z,11.07
2023-05-21T12:32:46.919Z,11.15
2023-05-21T12:35:24.530Z,9.90
2023-05-21T12:37:52.602Z,11.85
2023-05-21T12:40:20.647Z,9.13
2023-05-21T12:42:47.989Z,11.00
2023-05-21T12:45:16.056Z,10.52
2023-05-21T12:47:49.089Z,9.93
2023-05-21T12:50:21.074Z,9.25
2023-05-21T12:52:48.578Z,10.00
2023-05-21T12:55:15.973Z,10.00
2023-05-21T12:57:43.948Z,9.90
2023-05-21T13:00:11.919Z,31.13
2023-05-21T13:02:40.753Z,18.83
2023-05-21T13:05:09.657Z,14.93
2023-05-21T13:07:38.190Z,13.20
2023-05-21T13:10:06.136Z,17.42
2023-05-21T13:12:34.187Z,16.98
2023-05-21T13:15:02.173Z,11.63
2023-05-21T13:17:29.737Z,10.90
2023-05-21T13:20:07.652Z,17.88
2023-05-21T13:22:35.629Z,20.50
2023-05-21T13:25:03.502Z,17.70
2023-05-21T13:27:30.796Z,13.23
2023-05-21T13:29:58.679Z,9.38
2023-05-21T13:32:26.170Z,9.65
2023-05-21T13:34:53.527Z,11.82
2023-05-21T13:37:20.887Z,10.55
2023-05-21T13:39:48.611Z,9.73
2023-05-21T13:42:16.215Z,8.73
2023-05-21T13:44:43.557Z,8.82
2023-05-21T13:47:12.020Z,10.40
2023-05-21T13:49:39.357Z,10.77
2023-05-21T13:52:07.165Z,15.02
2023-05-21T13:54:34.602Z,10.87
2023-05-21T13:57:01.913Z,8.80
2023-05-21T13:59:31.898Z,10.48
2023-05-21T14:02:00.630Z,12.07
2023-05-21T14:04:28.051Z,10.48
2023-05-21T14:06:55.785Z,8.63
2023-05-21T14:09:23.507Z,8.17
2023-05-21T14:11:50.920Z,9.77
2023-05-21T14:14:19.118Z,10.07
2023-05-21T14:16:47.385Z,9.85
2023-05-21T14:19:14.891Z,9.77
2023-05-21T14:21:42.354Z,8.80
2023-05-21T14:24:09.760Z,10.07
2023-05-21T14:26:38.412Z,9.35
2023-05-21T14:31:33.610Z,9.88
2023-05-21T14:34:01.802Z,11.18
2023-05-21T14:36:29.376Z,11.27
2023-05-21T14:38:56.637Z,9.20
2023-05-21T14:41:27.231Z,10.90
2023-05-21T14:43:54.808Z,8.75
2023-05-21T14:46:22.706Z,11.55
2023-05-21T14:48:50.297Z,9.95
2023-05-21T14:51:17.759Z,14.90
2023-05-21T14:53:45.198Z,10.70
2023-05-21T14:56:12.545Z,13.02
2023-05-21T14:58:39.813Z,20.80
2023-05-21T15:01:07.211Z,88.60
2023-05-21T15:03:34.654Z,17.73
2023-05-21T15:06:02.041Z,13.98
2023-05-21T15:08:29.383Z,11.05
2023-05-21T15:10:57.481Z,17.15
2023-05-21T15:13:24.715Z,10.82
2023-05-21T15:15:52.103Z,10.85
2023-05-21T15:18:19.388Z,11.43
2023-05-21T15:20:46.736Z,10.15
2023-05-21T15:23:17.308Z,16.02
2023-05-21T15:25:45.692Z,25.40
2023-05-21T15:28:13.252Z,15.33
2023-05-21T15:30:40.742Z,13.10
2023-05-21T15:33:08.165Z,16.90
2023-05-21T15:35:36.700Z,10.85
2023-05-21T15:40:32.649Z,18.95
2023-05-21T15:43:00.062Z,13.43
2023-05-21T15:45:27.364Z,12.07
2023-05-21T15:47:54.740Z,18.00
2023-05-21T15:50:22.120Z,9.48
2023-05-21T15:52:51.577Z,14.70
2023-05-21T15:55:20.444Z,10.77
2023-05-21T15:57:47.828Z,15.75
2023-05-21T16:00:15.314Z,11.32
2023-05-21T16:02:42.718Z,14.38
2023-05-21T16:05:10.560Z,10.45
2023-05-21T16:07:38.382Z,13.25
2023-05-21T16:10:06.347Z,9.77
2023-05-21T16:12:33.737Z,10.98
2023-05-21T16:15:01.003Z,11.73
2023-05-21T16:17:28.377Z,10.32
2023-05-21T16:19:55.752Z,11.35
2023-05-21T16:22:23.944Z,11.05
2023-05-21T16:24:51.506Z,12.13
2023-05-21T16:27:18.850Z,11.55
2023-05-21T16:29:46.178Z,10.93
2023-05-21T16:32:14.157Z,10.32
2023-05-21T16:34:41.640Z,10.73
2023-05-21T16:37:09.757Z,11.30
2023-05-21T16:39:37.496Z,9.52
2023-05-21T16:42:04.864Z,13.18
2023-05-21T16:44:32.458Z,10.30
2023-05-21T16:47:01.641Z,13.50
2023-05-21T16:49:28.953Z,10.77
2023-05-21T16:51:56.379Z,11.57
2023-05-21T16:54:23.611Z,9.43
2023-05-21T16:56:50.947Z,12.18
2023-05-21T16:59:18.236Z,13.27
2023-05-21T17:01:45.605Z,10.27
2023-05-21T17:04:12.951Z,14.77
2023-05-21T17:06:40.292Z,11.32
2023-05-21T17:09:07.584Z,14.57
2023-05-21T17:11:35.130Z,11.30
2023-05-21T17:14:02.420Z,11.55
2023-05-21T17:16:29.812Z,11.93
2023-05-21T17:18:57.232Z,11.07
2023-05-21T17:21:26.429Z,12.00
2023-05-21T17:23:53.774Z,13.68
2023-05-21T17:26:21.891Z,12.50
2023-05-21T17:28:49.174Z,11.77
2023-05-21T17:31:16.961Z,11.57
2023-05-21T17:33:44.401Z,11.40
2023-05-21T17:36:11.865Z,11.23
2023-05-21T17:38:39.190Z,10.98
2023-05-21T17:41:06.482Z,12.63
2023-05-21T17:43:33.806Z,11.68
2023-05-21T17:46:01.353Z,9.82
2023-05-21T17:48:28.721Z,11.93
2023-05-21T17:50:55.968Z,13.70
2023-05-21T17:53:23.324Z,11.48
2023-05-21T17:55:50.569Z,14.57
2023-05-21T17:58:17.837Z,13.25
2023-05-21T18:00:45.145Z,13.82
2023-05-21T18:03:12.500Z,13.55
2023-05-21T18:05:39.999Z,13.63
2023-05-21T18:08:09.972Z,12.27
2023-05-21T18:10:37.254Z,13.73
2023-05-21T18:13:04.845Z,13.27
2023-05-21T18:15:33.196Z,12.07
2023-05-21T18:18:00.650Z,15.25
2023-05-21T18:20:28.029Z,14.93
2023-05-21T18:22:55.616Z,17.42
2023-05-21T18:25:23.330Z,14.80
2023-05-21T18:27:50.631Z,15.32
2023-05-21T18:30:17.960Z,11.68
2023-05-21T18:32:45.403Z,15.60
2023-05-21T18:35:14.429Z,15.10
2023-05-21T18:37:45.433Z,13.93
2023-05-21T18:40:13.302Z,19.27
2023-05-21T18:42:40.683Z,15.40
2023-05-21T18:45:11.729Z,16.65
2023-05-21T18:47:45.185Z,13.57
2023-05-21T18:50:16.536Z,13.60
2023-05-21T18:52:45.996Z,14.40
2023-05-21T18:55:15.948Z,13.05
2023-05-21T18:57:45.304Z,17.00
2023-05-21T19:00:16.200Z,16.67
2023-05-21T19:02:44.967Z,12.18
2023-05-21T19:05:18.358Z,16.00
2023-05-21T19:07:59.207Z,19.52
2023-05-21T19:10:28.538Z,15.73
2023-05-21T19:12:57.763Z,13.70
2023-05-21T19:15:25.232Z,16.08
2023-05-21T19:17:52.709Z,16.48
2023-05-21T19:20:29.125Z,19.02
2023-05-21T19:22:56.432Z,20.90
2023-05-21T19:25:24.190Z,18.92
2023-05-21T19:27:52.818Z,18.30
2023-05-21T19:30:20.277Z,17.23
2023-05-21T19:32:48.716Z,19.17
2023-05-21T19:35:16.542Z,18.67
2023-05-21T19:37:43.853Z,19.67
2023-05-21T19:40:11.325Z,20.52
2023-05-21T19:42:38.573Z,17.52
2023-05-21T19:45:09.515Z,17.75
2023-05-21T19:47:37.051Z,23.17
2023-05-21T19:50:04.737Z,19.20
2023-05-21T19:52:32.115Z,20.65
2023-05-21T19:55:04.741Z,18.40
2023-05-21T19:57:32.651Z,20.73
2023-05-21T20:00:00.161Z,23.20
2023-05-21T20:02:28.749Z,20.42
2023-05-21T20:04:57.727Z,23.25
2023-05-21T20:09:52.442Z,20.23
2023-05-21T20:12:19.842Z,21.20
2023-05-21T20:14:47.633Z,20.10
2023-05-21T20:17:15.299Z,20.13
2023-05-21T20:19:44.117Z,22.90
2023-05-21T20:22:11.521Z,22.52
2023-05-21T20:24:38.783Z,22.98
2023-05-21T20:27:07.000Z,22.65
2023-05-21T20:29:34.302Z,24.27
2023-05-21T20:32:01.682Z,20.75
2023-05-21T20:34:29.716Z,31.42
2023-05-21T20:37:00.051Z,22.20
2023-05-21T20:39:28.603Z,24.58
2023-05-21T20:41:56.245Z,29.17
2023-05-21T20:44:25.847Z,23.02
2023-05-21T20:46:53.145Z,25.83
2023-05-21T20:49:24.617Z,23.52
2023-05-21T20:51:52.258Z,26.88
2023-05-21T20:54:19.509Z,23.95
2023-05-21T20:56:46.843Z,26.17
2023-05-21T20:59:14.123Z,26.85
2023-05-21T21:01:41.960Z,22.50
2023-05-21T21:04:09.575Z,23.15
2023-05-21T21:06:38.562Z,23.42
2023-05-21T21:11:33.098Z,20.60
2023-05-21T21:14:02.555Z,22.42
2023-05-21T21:16:29.944Z,25.40
2023-05-21T21:18:57.384Z,21.50
2023-05-21T21:21:24.849Z,22.38
2023-05-21T21:23:52.108Z,25.63
2023-05-21T21:26:19.435Z,22.88
2023-05-21T21:28:46.811Z,25.83
2023-05-21T21:31:14.286Z,27.25
2023-05-21T21:33:41.628Z,29.42
2023-05-21T21:36:12.081Z,27.98
2023-05-21T21:38:39.353Z,25.25
2023-05-21T21:41:07.658Z,24.08
2023-05-21T21:43:34.967Z,23.23
2023-05-21T21:46:02.291Z,25.52
2023-05-21T21:48:29.561Z,23.33
2023-05-21T21:50:56.941Z,24.42
2023-05-21T21:53:24.243Z,22.20
2023-05-21T21:55:51.562Z,25.23
2023-05-21T21:58:18.869Z,25.15
2023-05-21T22:00:46.326Z,24.48
2023-05-21T22:03:14.764Z,25.63
2023-05-21T22:05:42.636Z,22.77
2023-05-21T22:08:10.034Z,22.75
2023-05-21T22:10:38.307Z,29.20
2023-05-21T22:13:05.959Z,22.55
2023-05-21T22:15:33.194Z,23.98
2023-05-21T22:18:02.472Z,24.48
2023-05-21T22:20:35.136Z,28.33
2023-05-21T22:23:03.435Z,24.20
2023-05-21T22:25:32.514Z,29.85
2023-05-21T22:28:01.343Z,27.80
2023-05-21T22:30:28.824Z,23.85
2023-05-21T22:32:59.072Z,25.52
2023-05-21T22:35:26.807Z,25.77
2023-05-21T22:37:54.076Z,25.02
2023-05-21T22:40:21.378Z,25.42
2023-05-21T22:42:48.758Z,24.63
2023-05-21T22:45:16.155Z,24.27
2023-05-21T22:47:43.558Z,29.85
2023-05-21T22:50:11.141Z,22.33
2023-05-21T22:52:38.428Z,22.83
2023-05-21T22:55:06.324Z,28.77
2023-05-21T22:57:33.654Z,24.77
2023-05-21T23:00:01.047Z,24.38
2023-05-21T23:02:29.473Z,28.23
2023-05-21T23:04:58.122Z,27.40
2023-05-21T23:07:25.681Z,29.45
2023-05-21T23:09:52.985Z,24.85
2023-05-21T23:12:20.379Z,26.33
2023-05-21T23:14:48.901Z,26.38
2023-05-21T23:19:46.460Z,30.27
2023-05-21T23:22:16.392Z,25.95
2023-05-21T23:24:45.002Z,28.38
2023-05-21T23:27:12.472Z,33.05
2023-05-21T23:29:39.787Z,32.88
2023-05-21T23:32:09.141Z,29.83
2023-05-21T23:34:37.659Z,34.45
2023-05-21T23:37:05.044Z,27.17
2023-05-21T23:39:32.574Z,26.88
2023-05-21T23:42:00.025Z,25.58
2023-05-21T23:44:27.900Z,25.17
2023-05-21T23:46:55.746Z,31.13
2023-05-21T23:49:22.986Z,26.38
2023-05-21T23:51:50.837Z,28.90
2023-05-21T23:54:18.372Z,26.50
2023-05-21T23:56:46.470Z,26.65
2023-05-21T23:59:25.220Z,26.73
